Create Custom Reports and Graphics: Custom Report

Latest Observations

Map

15 Minute Data

Lodi West

11 Stations

15 Minute Data | America/Los_Angeles
as of 2/23/20 6:19 PM PST
Station Date Time Temp (°F) RH (%) Dew Pt (°F) Wind Dir (°) Wind Spd (mph) Wind Gust (mph) Latest Rain (In) Daily Rain (In) Daily Min Temp (°F) Daily Max Temp (°F)
Claussen 2/23/20 1815 58.2   3.0 66   6 47.0   0.5 WSW | 255 3.9   2.7 7.3   6.8 0.00 0.00 42.5   9.1 66.6   8.4
Clarksburg (CLK) 2/23/20 1815 55.4   0.6 75   1 47.6   0.3 N | 6 0.3   7.5 1.8   12.1 0.00 0.00 42.2   3.9 66.1   6.8
Courtland-C3 2/23/20 1815 57.0   1.0 66   4 45.9   0.6 NW | 319 2.6   8.2 3.3   14.8 0.00 0.00 37.4   3.5 65.8   5.9
Guard Rd (Lodi WSW) 2/23/20 1815 57.4   0.7 64   2 45.2   0.2 NNW | 340 2.0   2.0 3.3   3.7 0.00 0.00 42.4   3.7 66.4   6.4
Gorter - Wilson 2/23/20 1815 55.7   0.1 72   3 46.7   1.1 N | 353 1.2   8.1 2.3   12.6 0.00 0.00 39.4   1.2 66.6   5.4
Hood (HOD) 2/23/20 1815 57.6   0.9 65   8 46.0   2.1 NW | 317 1.2   6.7 2.6   11.6 0.00 0.00 38.5   4.6 65.4   7.4
Pacific Fruit 2/23/20 1800 60.5   2.1 63   5 47.8   0.0 NW | 324 0.9   11.5 2.3   17.3 0.00 0.00 39.6   5.5 66.5   6.2
Ryer Island South (RIS) 2/23/20 1815 58.2   2.7 63   8 45.9   0.6 NW | 307 3.0   4.8 4.7   10.8 0.00 0.00 41.4   1.8 68.3   5.4
Utter - Wilson 2/23/20 1815 57.6   1.7 69   7 47.4   1.0 W | 270 0.5   7.8 1.2   13.8 0.00 0.00 45.5   4.1 65.8   7.5
Clarksburg-3A2 2/23/20 1815 56.3   0.4 72   2 47.5   0.5 W | 259 0.8   10.7 1.8   16.7 0.00 0.00 43.6   4.3 65.8   6.0
Max     60.5 75 47.8 - 3.9 7.3 0.00 0.00 45.5 68.3
Avg     57.4 67 46.7 - 1.6 3.1 0.00 - - -
Min     55.4 63 45.2 - 0.3 1.2 0.00 0.00 37.4 65.4

Lodi Central

Latest Observations

15 Minute Data | America/Los_Angeles
as of 2/23/20 6:19 PM PST
Station Date Time Temp (°F) Dew Pt (°F) RH (%) Wind Dir (°) Wind Spd (mph) Wind Gust (mph) Latest Rain (In) Daily Rain (In) Daily Min Temp (°F) Daily Max Temp (°F)
Galt West (GAW) 2/23/20 1815 56.9   0.3 46.2   0.4 67   0 NW | 319 1.8   4.4 2.8   12.9 0.00 0.00 38.4   4.3 65.9   7.1
Valley Oak 2/23/20 1800 58.9   0.4 44.7   0.7 59   1 NNW | 335 1.9   3.6 3.1   7.9 0.00 0.00 37.8   8.5 65.6   6.8
Thornton 2/23/20 1815 59.0   0.6 44.9   0.1 60   1 NNW | 342 1.8   5.2 3.8   10.1 0.00 0.00 38.7   7.9 66.0   7.6
Kost Rd 2/23/20 1815 56.3   1.2 47.6   0.2 73   3 NW | 314 0.9   5.0 1.6   7.8 0.00 0.00 37.6   5.9 65.8   6.7
DeVries Road-North 2/23/20 1815 56.3   0.6 46.0   0.5 68   0 NNW | 338 1.7   3.5 2.6   5.7 0.00 0.00 39.7   4.8 65.3   7.3
Lodi (LangeTwins) 2/23/20 1815 57.3   0.6 45.8   1.1 66   1 N | 0 0.0   4.6 0.0   9.1 0.00 0.00 38.3   7.4 66.0   7.0
Acampo (ACP) 2/23/20 1815 58.8   0.1 43.8   1.0 57   2 N | 0 0.0   5.4 0.0   9.1 0.00 0.00 41.5   5.4 65.0   7.3
Lodi West (MDW) 2/23/20 1815 59.1   0.9 43.9   0.8 57   4 NNW | 331 1.7   2.9 3.3   5.7 0.00 0.00 44.5   2.2 65.4   7.3
Max     59.1 47.6 73 - 1.9 3.8 0.00 0.00 44.5 66.0
Avg     57.8 45.4 63 - 1.2 2.1 0.00 - - -
Min     56.3 43.8 57 - 0.0 0.0 0.00 0.00 37.6 65.0

Lodi South

20 Stations

15 Minute Data
as of 2/23/20 6:19 PM PST
Station Date Time Temp (°F) Dew Pt (°F) RH (%) Wind Spd (mph) Wind Dir (°) Wind Gust (mph) Latest Rain (In) Daily Rain (In) Daily Min Temp (°F) Daily Max Temp (°F)
Borden Hills 2/23/20 1815 59.7   1.3 48.4   0.6 66   2 2.4   2.0 NNW | 343 3.5   2.8 0.00 0.00 42.7   5.9 67.2   6.5
Collegeville (COL) 2/23/20 1815 58.7   0.7 43.0   2.7 56   7 2.5   3.5 NNW | 346 4.6   5.3 0.00 0.00 36.3   15.8 66.1   7.9
Galt-East (EGT) 2/23/20 1815 58.1   0.6 46.0   1.2 64   4 1.7   3.7 NW | 319 2.2   7.2 0.00 0.00 40.0   5.2 64.4   8.2
Escalon (ESL) 2/23/20 1815 59.6   2.2 45.4   0.4 59   4 1.0   1.0 NNW | 335 2.8   2.2 0.00 0.00 36.4   18.5 68.2   6.9
Victor - N (Katusha) 2/23/20 1815 58.1   0.5 43.1   1.4 57   2 0.0   4.9 NW | 318 1.4   6.4 0.00 0.00 40.6   6.1 64.2   8.0
Teresi-Alpine Rd (East Lodi) 2/23/20 1815 59.8   0.3 45.0   0.7 58   1 1.7   3.8 N | 350 3.2   7.1 0.00 0.00 40.9   8.4 67.2   7.4
Gilbeau Ranch 2/23/20 1800 59.8   1.1 45.1   1.8 58   7 1.4   3.5 WNW | 286 2.6   4.6 0.00 0.00 39.8   5.5 65.4   6.7
Lodi 9/1/19 2315 68.3   2.1 54.6   2.0 61   8 0.0   0.0 N | 0 0.0   0.6 0.00 0.00 54.3   2.9 96.9   0.2
Linden (LIN) 2/23/20 1815 59.2   1.7 43.9   1.7 57   0 0.9   3.3 NNW | 337 1.8   5.7 0.00 0.00 39.0   11.9 65.5   7.3
Live Oak (LIV) 2/23/20 1815 59.7   0.1 44.1   1.1 56   3 0.4   5.3 NNW | 330 1.8   9.9 0.00 0.00 41.0   9.3 65.6   7.3
Lockeford (LOC) 2/23/20 1815 58.0   1.4 - 0   0 1.4   5.1 NW | 324 2.1   13.4 0.00 0.00 40.2   7.9 64.4   8.5
Lone Oak-L28 2/23/20 1815 55.0   2.7 45.0   1.2 69   4 0.4   3.3 NW | 320 1.8   4.2 0.00 0.00 36.0   10.6 64.2   7.4
Colony 1 2/23/20 1815 58.3   1.0 45.6   1.1 63   5 1.0   4.7 NNW | 337 2.3   7.5 0.00 0.00 39.4   2.5 72.7   5.4
Colony 2 2/23/20 1815 56.6   0.4 46.5   0.4 69   0 1.6   5.5 WNW | 302 2.8   7.6 0.00 0.00 37.8   5.7 73.9   4.9
Sheldon (SHL) 2/23/20 1815 58.2   0.1 45.0   2.6 62   6 1.2   5.7 W | 264 2.4   8.4 0.00 0.00 38.4   3.8 65.2   6.7
Sierra Loma-L27 2/23/20 1815 58.8   0.2 47.4   0.4 66   0 1.8   2.2 N | 2 2.7   3.2 0.00 0.00 42.9   4.5 66.5   6.0
Simmerhorn (SIM) 2/23/20 1815 57.8   1.2 43.2   1.8 58   7 - - - - - 40.4   4.7 64.9   6.2
Sloughhouse (SLH) 2/23/20 1815 55.5   2.1 37.2   1.9 50   0 0.0   3.8 N | 0 0.0   10.5 0.00 0.00 38.6   0.7 65.2   7.4
5 Wells 2/23/20 1815 57.8   1.1 46.2   0.4 65   2 2.4   4.5 W | 281 3.1   7.9 0.00 0.00 39.6   5.0 65.2   6.9
Max     59.8 48.4 69 2.5 - 4.6 0.00 0.00 42.9 73.9
Avg     58.3 44.7 57 1.3 - 2.4 0.00 - - -
Min     55.0 37.2 0 0.0 - 0.0 0.00 0.00 36.0 64.2